F/V Memere Marie — FHSM — position and weather

sailwx.info

Track history (hours):
 
Tides and Currents Weather Stations Pressure Air Temp Water Temp Dewpoint Dewpoint Depression Visibility Wind Speed Wind Dir Waves Ship Positions

F/V Memere Marie

Last reported at 2017-Sep-22 02:00 UTC. Time now 2017-Sep-23 16:40 UTC.
Position N 47°44' W 003°22'.

Length 14 m.

Type: Fishing. MMSI: 228851000.

Date/timePositionNaut miles runAvg speedWind from/ knotsBaromVisibWave heightAir tempDewpointWater temp
2017-Sep-22 02:00N 47°44' W 003°22'0 0.0
2017-Sep-22 01:30N 47°44' W 003°22'0 0.0
2017-Sep-22 01:00N 47°44' W 003°22'0 0.0
2017-Sep-22 00:30N 47°44' W 003°22'0 0.0
2017-Sep-22 00:00N 47°44' W 003°22'0 0.0
2017-Sep-21 23:30N 47°44' W 003°22'0 0.0
2017-Sep-21 22:57N 47°44' W 003°22'0 0.0
2017-Sep-21 22:30N 47°44' W 003°22'0 0.0
2017-Sep-21 22:00N 47°44' W 003°22'0 0.0
2017-Sep-21 21:30N 47°44' W 003°22'0 0.0
2017-Sep-21 21:00N 47°44' W 003°22'1 2.6
2017-Sep-21 20:30N 47°42' W 003°22'4 7.7
2017-Sep-21 20:00N 47°39' W 003°23'5 0.3
2017-Sep-21 04:08N 47°40' W 003°30'1 7.7
2017-Sep-21 04:00N 47°40' W 003°28'4 7.8
2017-Sep-21 03:30N 47°42' W 003°23'2 4.5
2017-Sep-21 03:00N 47°44' W 003°22'0 0.0
2017-Sep-21 02:30N 47°44' W 003°22'0 0.0
2017-Sep-21 02:00N 47°44' W 003°22'0 0.0
2017-Sep-21 01:30N 47°44' W 003°22'0 0.0
2017-Sep-21 01:00N 47°44' W 003°22'0 0.0
2017-Sep-21 00:30N 47°44' W 003°22'0 0.0
2017-Sep-21 00:00N 47°44' W 003°22'0 0.0
2017-Sep-20 23:30N 47°44' W 003°22'0 0.0
2017-Sep-20 23:00N 47°44' W 003°22'0 0.0
2017-Sep-20 22:30N 47°44' W 003°22'0 0.0
2017-Sep-20 22:00N 47°44' W 003°22'0 0.0
2017-Sep-20 21:30N 47°44' W 003°22'1 1.2
2017-Sep-20 21:00N 47°43' W 003°22'3 6.7
2017-Sep-20 20:30N 47°41' W 003°25'5 0.3
2017-Sep-20 03:50N 47°39' W 003°32'2 6.6
2017-Sep-20 03:30N 47°40' W 003°29'3 6.5
2017-Sep-20 03:00N 47°41' W 003°24'3 5.8
2017-Sep-20 02:30N 47°43' W 003°22'0 0.5
2017-Sep-20 01:59N 47°44' W 003°22'0 0.4
2017-Sep-20 01:29N 47°44' W 003°22'0 0.0
2017-Sep-20 00:59N 47°44' W 003°22'0 0.0
2017-Sep-20 00:29N 47°44' W 003°22'0 0.0
2017-Sep-19 23:59N 47°44' W 003°22'0 0.0
2017-Sep-19 23:29N 47°44' W 003°22'0 0.0
2017-Sep-19 22:59N 47°44' W 003°22'0 0.0
2017-Sep-19 22:29N 47°44' W 003°22'0 0.0
2017-Sep-19 21:59N 47°44' W 003°22'0 0.0
2017-Sep-19 21:29N 47°44' W 003°22'2 3.3
2017-Sep-19 21:00N 47°42' W 003°22'4 7.5
2017-Sep-19 20:28N 47°40' W 003°28'1 0.1
2017-Sep-19 03:01N 47°40' W 003°30'1 6.2
2017-Sep-19 02:55N 47°40' W 003°29'3 6.4
2017-Sep-19 02:30N 47°41' W 003°25'3 5.9
2017-Sep-19 02:00N 47°43' W 003°22'1 1.5
2017-Sep-19 01:28N 47°44' W 003°22'0 0.0
2017-Sep-19 00:58N 47°44' W 003°22'0 0.0
2017-Sep-19 00:28N 47°44' W 003°22'0 0.0
2017-Sep-18 23:58N 47°44' W 003°22'0 0.0
2017-Sep-18 23:28N 47°44' W 003°22'0 0.6
2017-Sep-18 23:00N 47°44' W 003°22'3 6.7
2017-Sep-18 22:30N 47°41' W 003°25'11 0.6
2017-Sep-18 05:13N 47°35' W 003°38'1 4.8
2017-Sep-18 04:58N 47°35' W 003°36'7 8.1
2017-Sep-18 04:05N 47°40' W 003°29'1 8.5
2017-Sep-18 03:59N 47°40' W 003°28'4 8.5
2017-Sep-18 03:30N 47°42' W 003°23'2 0.0
2017-Sep-16 00:09N 47°44' W 003°22'0 0.0
2017-Sep-16 00:00N 47°44' W 003°22'0 0.0
2017-Sep-15 23:30N 47°44' W 003°22'0 0.0
2017-Sep-15 23:00N 47°44' W 003°22'1 2.8
2017-Sep-15 22:30N 47°42' W 003°22'4 7.7
2017-Sep-15 22:00N 47°40' W 003°27'2 0.1
2017-Sep-15 03:34N 47°40' W 003°30'0 7.9
2017-Sep-15 03:30N 47°40' W 003°29'4 8.2
2017-Sep-15 03:00N 47°42' W 003°23'2 4.6
2017-Sep-15 02:29N 47°44' W 003°22'0 0.0
2017-Sep-13 10:17N 47°44' W 003°22'0 0.0
2017-Sep-13 09:59N 47°44' W 003°22'0 0.0
2017-Sep-13 09:29N 47°44' W 003°22'0 0.0
2017-Sep-13 08:59N 47°44' W 003°22'0 0.0
2017-Sep-13 08:29N 47°44' W 003°22'0 0.0
2017-Sep-13 07:59N 47°44' W 003°22'0 0.0
2017-Sep-13 07:29N 47°44' W 003°22'0 0.0
2017-Sep-12 09:21N 47°44' W 003°22'0 0.0
2017-Sep-12 09:00N 47°44' W 003°22'0 0.0
2017-Sep-12 08:30N 47°44' W 003°22'0 0.0
2017-Sep-12 08:00N 47°44' W 003°22'  
Track history (hours):
 
Tides and Currents Weather Stations Pressure Air Temp Water Temp Dewpoint Dewpoint Depression Visibility Wind Speed Wind Dir Waves Ship Positions

F/V Memere Marie

Last reported at 2017-Sep-22 02:00 UTC. Time now 2017-Sep-23 16:40 UTC.
Position N 47°44' W 003°22'.

Length 14 m.

Type: Fishing. MMSI: 228851000.

Date/timePositionNaut miles runAvg speedWind from/ knotsBaromVisibWave heightAir tempDewpointWater temp
2017-Sep-22 02:00N 47°44' W 003°22'0 0.0
2017-Sep-22 01:30N 47°44' W 003°22'0 0.0
2017-Sep-22 01:00N 47°44' W 003°22'0 0.0
2017-Sep-22 00:30N 47°44' W 003°22'0 0.0
2017-Sep-22 00:00N 47°44' W 003°22'0 0.0
2017-Sep-21 23:30N 47°44' W 003°22'0 0.0
2017-Sep-21 22:57N 47°44' W 003°22'0 0.0
2017-Sep-21 22:30N 47°44' W 003°22'0 0.0
2017-Sep-21 22:00N 47°44' W 003°22'0 0.0
2017-Sep-21 21:30N 47°44' W 003°22'0 0.0
2017-Sep-21 21:00N 47°44' W 003°22'1 2.6
2017-Sep-21 20:30N 47°42' W 003°22'4 7.7
2017-Sep-21 20:00N 47°39' W 003°23'5 0.3
2017-Sep-21 04:08N 47°40' W 003°30'1 7.7
2017-Sep-21 04:00N 47°40' W 003°28'4 7.8
2017-Sep-21 03:30N 47°42' W 003°23'2 4.5
2017-Sep-21 03:00N 47°44' W 003°22'0 0.0
2017-Sep-21 02:30N 47°44' W 003°22'0 0.0
2017-Sep-21 02:00N 47°44' W 003°22'0 0.0
2017-Sep-21 01:30N 47°44' W 003°22'0 0.0
2017-Sep-21 01:00N 47°44' W 003°22'0 0.0
2017-Sep-21 00:30N 47°44' W 003°22'0 0.0
2017-Sep-21 00:00N 47°44' W 003°22'0 0.0
2017-Sep-20 23:30N 47°44' W 003°22'0 0.0
2017-Sep-20 23:00N 47°44' W 003°22'0 0.0
2017-Sep-20 22:30N 47°44' W 003°22'0 0.0
2017-Sep-20 22:00N 47°44' W 003°22'0 0.0
2017-Sep-20 21:30N 47°44' W 003°22'1 1.2
2017-Sep-20 21:00N 47°43' W 003°22'3 6.7
2017-Sep-20 20:30N 47°41' W 003°25'5 0.3
2017-Sep-20 03:50N 47°39' W 003°32'2 6.6
2017-Sep-20 03:30N 47°40' W 003°29'3 6.5
2017-Sep-20 03:00N 47°41' W 003°24'3 5.8
2017-Sep-20 02:30N 47°43' W 003°22'0 0.5
2017-Sep-20 01:59N 47°44' W 003°22'0 0.4
2017-Sep-20 01:29N 47°44' W 003°22'0 0.0
2017-Sep-20 00:59N 47°44' W 003°22'0 0.0
2017-Sep-20 00:29N 47°44' W 003°22'0 0.0
2017-Sep-19 23:59N 47°44' W 003°22'0 0.0
2017-Sep-19 23:29N 47°44' W 003°22'0 0.0
2017-Sep-19 22:59N 47°44' W 003°22'0 0.0
2017-Sep-19 22:29N 47°44' W 003°22'0 0.0
2017-Sep-19 21:59N 47°44' W 003°22'0 0.0
2017-Sep-19 21:29N 47°44' W 003°22'2 3.3
2017-Sep-19 21:00N 47°42' W 003°22'4 7.5
2017-Sep-19 20:28N 47°40' W 003°28'1 0.1
2017-Sep-19 03:01N 47°40' W 003°30'1 6.2
2017-Sep-19 02:55N 47°40' W 003°29'3 6.4
2017-Sep-19 02:30N 47°41' W 003°25'3 5.9
2017-Sep-19 02:00N 47°43' W 003°22'1 1.5
2017-Sep-19 01:28N 47°44' W 003°22'0 0.0
2017-Sep-19 00:58N 47°44' W 003°22'0 0.0
2017-Sep-19 00:28N 47°44' W 003°22'0 0.0
2017-Sep-18 23:58N 47°44' W 003°22'0 0.0
2017-Sep-18 23:28N 47°44' W 003°22'0 0.6
2017-Sep-18 23:00N 47°44' W 003°22'3 6.7
2017-Sep-18 22:30N 47°41' W 003°25'11 0.6
2017-Sep-18 05:13N 47°35' W 003°38'1 4.8
2017-Sep-18 04:58N 47°35' W 003°36'7 8.1
2017-Sep-18 04:05N 47°40' W 003°29'1 8.5
2017-Sep-18 03:59N 47°40' W 003°28'4 8.5
2017-Sep-18 03:30N 47°42' W 003°23'2 0.0
2017-Sep-16 00:09N 47°44' W 003°22'0 0.0
2017-Sep-16 00:00N 47°44' W 003°22'0 0.0
2017-Sep-15 23:30N 47°44' W 003°22'0 0.0
2017-Sep-15 23:00N 47°44' W 003°22'1 2.8
2017-Sep-15 22:30N 47°42' W 003°22'4 7.7
2017-Sep-15 22:00N 47°40' W 003°27'2 0.1
2017-Sep-15 03:34N 47°40' W 003°30'0 7.9
2017-Sep-15 03:30N 47°40' W 003°29'4 8.2
2017-Sep-15 03:00N 47°42' W 003°23'2 4.6
2017-Sep-15 02:29N 47°44' W 003°22'0 0.0
2017-Sep-13 10:17N 47°44' W 003°22'0 0.0
2017-Sep-13 09:59N 47°44' W 003°22'0 0.0
2017-Sep-13 09:29N 47°44' W 003°22'0 0.0
2017-Sep-13 08:59N 47°44' W 003°22'0 0.0
2017-Sep-13 08:29N 47°44' W 003°22'0 0.0
2017-Sep-13 07:59N 47°44' W 003°22'0 0.0
2017-Sep-13 07:29N 47°44' W 003°22'0 0.0
2017-Sep-12 09:21N 47°44' W 003°22'0 0.0
2017-Sep-12 09:00N 47°44' W 003°22'0 0.0
2017-Sep-12 08:30N 47°44' W 003°22'0 0.0
2017-Sep-12 08:00N 47°44' W 003°22'  

Dump ship's entire track history